Aérodrome :
LOGIN :

S'inscrire | Disclaimer

   EN    FR    IT 

 










Légende :    VFR   VFR Marginal   IFR   IFR Intensif   IFR Très Intensif
Visi : 
Plafond : 
>= 8 km
>= 3000ft
5 à 8 km
1000 à 3000 ft
1500m à 5 km
500 à 1000 ft
800 à 1500m
200 à 500 ft
< 800m
< 200 ft
Symboles :   Orages  Brouillard  Fortes neiges  Fortes précipitations  Vent > 20 kt
SIGMETs :   Divers  Orages  Givrage  Turbulence  Onde Orograph.  Cendres Volcan.







- Altitude de l'aérodrome : 7 ft
- Code IATA : XHE
- Voir les cartes d'approche


LFTH - Hyeres

DERNIER METAR :
  • 270600Z AUTO 36003KT 8000 BKN016 OVC025 17/15 Q1012 NOSIG

METARs EXPIRÉS :
  • 270530Z AUTO 36003KT 7000 FEW014 BKN019 BKN024 16/14 Q1011 NOSIG
  • 270500Z AUTO 36003KT 7000 BKN016 OVC028 15/14 Q1011 NOSIG
  • 270430Z AUTO VRB02KT 7000 BKN016 OVC029 15/14 Q1011 NOSIG
  • 270400Z AUTO VRB02KT 7000 SCT017 OVC026 15/14 Q1011 NOSIG
  • 270330Z AUTO VRB02KT 7000 SCT016 OVC022 15/14 Q1011 NOSIG

TAF TAF LFTH
Valide du 27 à 03h jusqu'au 28 à 03h UTC


270200Z 2703/2803 VRB02KT CAVOK
BECMG 2709/2711 20010KT
BECMG 2716/2718 VRB02KT
Pas de NOTAMs connus pour ce terrain.



MET'MAP, la Météo Aéronautique d'un coup d'oeil ! - Copyright ORBIFLY Décembre 2007 - Disclaimer

ORBIFLY MET'MAP TEAM :

Programmation & Développement : Alexandra Zaïnal
Conception & Développement : Baudouin d'Aumeries
Co-Programmation & Développement : Marc-Olivier Méhu
Soutien technique & logistique : Manuel Goepfert

Contact : metmap@orbifly.com




SOURCES & CREDITS :

   NOAA